createdAt,value
2023-04-27T00:04:45.374Z,0.00
2023-04-27T00:09:44.925Z,0.00
2023-04-27T00:14:44.785Z,0.00
2023-04-27T00:19:44.806Z,0.00
2023-04-27T00:24:45.535Z,0.00
2023-04-27T00:29:44.689Z,0.00
2023-04-27T00:34:44.628Z,0.00
2023-04-27T00:39:44.656Z,0.00
2023-04-27T00:44:44.624Z,0.00
2023-04-27T00:49:47.969Z,0.00
2023-04-27T00:54:44.644Z,0.00
2023-04-27T00:59:44.442Z,0.00
2023-04-27T01:04:44.118Z,0.00
2023-04-27T01:09:44.259Z,0.00
2023-04-27T01:14:43.977Z,0.00
2023-04-27T01:19:43.843Z,0.00
2023-04-27T01:24:43.762Z,0.00
2023-04-27T01:29:43.834Z,0.00
2023-04-27T01:34:43.603Z,0.00
2023-04-27T01:39:43.584Z,0.00
2023-04-27T01:44:43.547Z,0.00
2023-04-27T01:49:46.567Z,0.00
2023-04-27T01:54:43.450Z,0.00
2023-04-27T02:01:46.214Z,0.00
2023-04-27T02:06:45.932Z,0.00
2023-04-27T02:11:46.009Z,0.00
2023-04-27T02:16:45.961Z,0.00
2023-04-27T02:21:45.835Z,0.00
2023-04-27T02:26:45.635Z,0.00
2023-04-27T02:31:45.747Z,0.00
2023-04-27T02:36:45.632Z,0.00
2023-04-27T02:41:45.518Z,0.00
2023-04-27T02:46:45.408Z,0.00
2023-04-27T02:51:48.339Z,0.00
2023-04-27T02:56:45.355Z,0.00
2023-04-27T03:01:45.625Z,0.00
2023-04-27T03:06:45.181Z,0.00
2023-04-27T03:11:45.051Z,0.00
2023-04-27T03:16:45.017Z,0.00
2023-04-27T03:21:45.089Z,0.00
2023-04-27T03:26:44.944Z,4.00
2023-04-27T03:31:44.989Z,4.00
2023-04-27T03:36:44.816Z,12.00
2023-04-27T03:57:53.259Z,104.00
2023-04-27T04:15:24.752Z,340.00
2023-04-27T04:20:23.966Z,428.00
2023-04-27T04:25:23.921Z,460.00
2023-04-27T04:30:23.782Z,704.00
2023-04-27T04:35:23.927Z,1040.00
2023-04-27T04:40:23.656Z,1312.00
2023-04-27T04:45:23.987Z,1564.00
2023-04-27T04:50:23.494Z,1724.00
2023-04-27T04:55:23.719Z,1948.00
2023-04-27T05:00:23.443Z,1996.00
2023-04-27T05:05:26.372Z,3080.00
2023-04-27T05:10:23.242Z,4116.00
2023-04-27T05:15:23.531Z,5424.00
2023-04-27T05:20:23.214Z,6792.00
2023-04-27T05:25:23.758Z,7820.00
2023-04-27T05:30:23.185Z,13152.00
2023-04-27T05:35:22.969Z,9624.00
2023-04-27T05:40:22.852Z,12848.00
2023-04-27T05:45:22.826Z,9224.00
2023-04-27T05:50:22.711Z,9020.00
2023-04-27T05:55:22.763Z,17888.00
2023-04-27T06:00:22.784Z,13504.00
2023-04-27T06:05:25.937Z,9828.00
2023-04-27T06:10:22.770Z,16256.00
2023-04-27T06:15:22.513Z,23648.00
2023-04-27T06:20:22.378Z,28576.00
2023-04-27T06:25:24.463Z,19744.00
2023-04-27T06:30:22.197Z,11540.00
2023-04-27T06:35:22.774Z,22016.00
2023-04-27T06:40:22.104Z,18208.00
2023-04-27T06:45:22.089Z,15552.00
2023-04-27T06:50:21.999Z,27360.00
2023-04-27T06:55:22.063Z,31968.00
2023-04-27T07:00:22.045Z,22688.00
2023-04-27T07:05:24.892Z,26432.00
2023-04-27T07:10:21.951Z,39680.00
2023-04-27T07:15:21.641Z,31680.00
2023-04-27T07:20:21.644Z,32800.00
2023-04-27T07:25:21.578Z,23552.00
2023-04-27T07:30:29.344Z,49408.00
2023-04-27T07:35:21.391Z,21472.00
2023-04-27T07:40:22.418Z,42496.00
2023-04-27T07:45:21.500Z,25120.00
2023-04-27T07:50:21.214Z,45344.00
2023-04-27T07:55:21.086Z,51072.00
2023-04-27T08:00:21.179Z,52064.00
2023-04-27T08:05:24.713Z,51968.00
2023-04-27T08:10:20.897Z,48032.00
2023-04-27T08:15:20.882Z,15936.00
2023-04-27T08:20:20.775Z,14056.00
2023-04-27T08:25:20.735Z,13104.00
2023-04-27T08:30:20.674Z,13236.00
2023-04-27T08:35:20.668Z,14028.00
2023-04-27T08:40:20.636Z,13468.00
2023-04-27T08:45:21.291Z,13796.00
2023-04-27T08:50:20.377Z,13196.00
2023-04-27T08:55:20.377Z,13532.00
2023-04-27T09:00:20.255Z,14664.00
2023-04-27T09:05:23.322Z,14612.00
2023-04-27T09:10:20.488Z,13944.00
2023-04-27T09:15:20.096Z,11988.00
2023-04-27T09:20:20.092Z,9176.00
2023-04-27T09:25:19.981Z,9256.00
2023-04-27T09:30:19.879Z,9944.00
2023-04-27T09:35:19.980Z,10464.00
2023-04-27T09:40:19.808Z,9828.00
2023-04-27T09:45:19.814Z,11068.00
2023-04-27T09:50:19.784Z,9856.00
2023-04-27T09:55:20.396Z,10308.00
2023-04-27T10:02:49.978Z,9352.00
2023-04-27T10:07:37.980Z,10184.00
2023-04-27T10:18:18.575Z,10968.00
2023-04-27T10:23:18.205Z,12536.00
2023-04-27T10:42:57.581Z,10988.00
2023-04-27T10:47:57.474Z,16064.00
2023-04-27T10:52:58.834Z,15616.00
2023-04-27T10:57:57.682Z,15040.00
2023-04-27T11:02:58.006Z,13140.00
2023-04-27T11:07:57.415Z,13392.00
2023-04-27T11:12:57.115Z,11844.00
2023-04-27T11:17:57.107Z,12708.00
2023-04-27T11:22:57.034Z,12048.00
2023-04-27T11:27:56.877Z,11956.00
2023-04-27T11:32:59.965Z,12496.00
2023-04-27T11:37:56.727Z,13580.00
2023-04-27T11:42:56.830Z,12476.00
2023-04-27T11:47:56.742Z,10176.00
2023-04-27T11:52:56.692Z,8372.00
2023-04-27T11:57:56.484Z,9048.00
2023-04-27T12:02:56.593Z,12052.00
2023-04-27T12:08:03.929Z,14584.00
2023-04-27T12:12:56.266Z,14084.00
2023-04-27T12:17:56.236Z,15552.00
2023-04-27T12:22:56.167Z,14744.00
2023-04-27T12:27:56.153Z,12416.00
2023-04-27T12:33:06.056Z,12356.00
2023-04-27T12:37:55.969Z,11856.00
2023-04-27T12:42:55.904Z,12804.00
2023-04-27T12:48:03.569Z,13504.00
2023-04-27T12:52:56.849Z,13200.00
2023-04-27T12:57:55.745Z,10700.00
2023-04-27T13:02:55.757Z,7652.00
2023-04-27T13:07:55.607Z,8916.00
2023-04-27T13:12:55.572Z,10812.00
2023-04-27T13:17:55.394Z,9804.00
2023-04-27T13:22:55.411Z,8720.00
2023-04-27T13:27:55.304Z,9764.00
2023-04-27T13:33:07.231Z,10520.00
2023-04-27T13:37:56.195Z,8400.00
2023-04-27T13:42:55.130Z,7688.00
2023-04-27T13:47:55.108Z,8256.00
2023-04-27T13:52:55.027Z,7680.00
2023-04-27T13:57:54.934Z,8868.00
2023-04-27T14:02:55.014Z,7552.00
2023-04-27T14:07:54.866Z,7764.00
2023-04-27T14:12:54.821Z,7468.00
2023-04-27T14:17:54.642Z,7016.00
2023-04-27T14:22:55.396Z,7704.00
2023-04-27T14:27:54.476Z,7760.00
2023-04-27T14:32:57.500Z,6812.00
2023-04-27T14:37:54.458Z,6744.00
2023-04-27T14:42:54.450Z,8500.00
2023-04-27T14:47:54.337Z,8044.00
2023-04-27T14:52:54.212Z,9464.00
2023-04-27T14:57:54.113Z,9500.00
2023-04-27T15:02:54.198Z,8404.00
2023-04-27T15:07:54.085Z,6868.00
2023-04-27T15:12:53.947Z,10360.00
2023-04-27T15:17:54.128Z,10324.00
2023-04-27T15:22:53.854Z,12444.00
2023-04-27T15:27:53.736Z,9576.00
2023-04-27T15:32:56.784Z,10272.00
2023-04-27T15:37:53.554Z,8016.00
2023-04-27T15:42:53.784Z,5932.00
2023-04-27T15:47:53.466Z,5212.00
2023-04-27T15:52:53.441Z,4648.00
2023-04-27T15:57:53.292Z,4200.00
2023-04-27T16:02:53.422Z,4316.00
2023-04-27T16:07:53.331Z,4900.00
2023-04-27T16:12:53.398Z,4872.00
2023-04-27T16:17:53.132Z,5240.00
2023-04-27T16:22:53.070Z,5632.00
2023-04-27T16:27:52.911Z,5020.00
2023-04-27T16:32:55.985Z,5148.00
2023-04-27T16:37:52.831Z,5332.00
2023-04-27T16:42:52.739Z,5448.00
2023-04-27T16:47:52.767Z,5356.00
2023-04-27T16:52:52.652Z,5112.00
2023-04-27T16:57:52.496Z,4412.00
2023-04-27T17:02:52.745Z,3760.00
2023-04-27T17:07:52.523Z,3300.00
2023-04-27T17:12:52.374Z,3172.00
2023-04-27T17:17:52.322Z,2840.00
2023-04-27T17:22:52.216Z,2356.00
2023-04-27T17:27:52.220Z,1936.00
2023-04-27T17:32:55.092Z,1604.00
2023-04-27T17:37:52.017Z,1396.00
2023-04-27T17:42:52.066Z,1296.00
2023-04-27T17:47:52.047Z,1180.00
2023-04-27T17:52:51.814Z,1020.00
2023-04-27T17:57:51.854Z,796.00
2023-04-27T18:02:51.812Z,660.00
2023-04-27T18:07:58.999Z,568.00
2023-04-27T18:12:51.554Z,456.00
2023-04-27T18:17:51.651Z,336.00
2023-04-27T18:22:51.394Z,224.00
2023-04-27T18:27:51.448Z,148.00
2023-04-27T18:32:54.343Z,92.00
2023-04-27T18:37:51.222Z,52.00
2023-04-27T18:42:51.294Z,28.00
2023-04-27T18:47:51.186Z,16.00
2023-04-27T18:52:51.145Z,8.00
2023-04-27T18:57:51.107Z,0.00
2023-04-27T19:02:51.168Z,0.00
2023-04-27T19:07:50.807Z,0.00
2023-04-27T19:12:50.829Z,0.00
2023-04-27T19:17:55.525Z,0.00
2023-04-27T19:22:53.255Z,0.00
2023-04-27T19:27:50.521Z,0.00
2023-04-27T19:32:53.525Z,0.00
2023-04-27T19:37:50.440Z,0.00
2023-04-27T19:42:50.389Z,0.00
2023-04-27T19:47:50.450Z,0.00
2023-04-27T19:52:50.415Z,0.00
2023-04-27T19:57:50.161Z,0.00
2023-04-27T20:02:50.992Z,0.00
2023-04-27T20:07:50.871Z,0.00
2023-04-27T20:14:01.658Z,0.00
2023-04-27T20:19:00.513Z,0.00
2023-04-27T20:24:08.320Z,0.00
2023-04-27T20:30:19.341Z,0.00
2023-04-27T20:35:18.073Z,0.00
2023-04-27T20:40:20.019Z,0.00
2023-04-27T20:45:17.723Z,0.00
2023-04-27T20:50:17.693Z,0.00
2023-04-27T20:55:17.639Z,0.00
2023-04-27T21:00:17.557Z,0.00
2023-04-27T21:05:17.493Z,0.00
2023-04-27T21:10:18.046Z,0.00
2023-04-27T21:15:17.334Z,0.00
2023-04-27T21:20:20.314Z,0.00
2023-04-27T21:25:17.204Z,0.00
2023-04-27T21:30:17.166Z,0.00
2023-04-27T21:35:17.117Z,0.00
2023-04-27T21:40:17.089Z,0.00
2023-04-27T21:45:16.949Z,0.00
2023-04-27T21:50:16.942Z,0.00
2023-04-27T21:55:16.784Z,0.00
2023-04-27T22:00:16.782Z,0.00
2023-04-27T22:05:16.668Z,0.00
2023-04-27T22:10:16.639Z,0.00
2023-04-27T22:15:16.538Z,0.00
2023-04-27T22:20:20.052Z,0.00
2023-04-27T22:25:16.416Z,0.00
2023-04-27T22:30:16.456Z,0.00
2023-04-27T22:35:25.484Z,0.00
2023-04-27T22:40:17.299Z,0.00
2023-04-27T22:45:23.634Z,0.00
2023-04-27T22:50:23.590Z,0.00
2023-04-27T22:55:16.098Z,0.00
2023-04-27T23:00:15.948Z,0.00
2023-04-27T23:05:15.926Z,0.00
2023-04-27T23:10:15.882Z,0.00
2023-04-27T23:15:15.769Z,0.00
2023-04-27T23:20:28.201Z,0.00
2023-04-27T23:25:16.630Z,0.00
2023-04-27T23:30:15.666Z,0.00
2023-04-27T23:35:15.490Z,0.00
2023-04-27T23:40:15.431Z,0.00
2023-04-27T23:45:15.372Z,0.00
2023-04-27T23:50:15.430Z,0.00
2023-04-27T23:55:15.242Z,0.00
